createdAt,value
2022-11-08T00:00:23.855Z,0.00
2022-11-08T00:01:23.900Z,0.00
2022-11-08T00:02:23.889Z,0.00
2022-11-08T00:03:23.881Z,0.00
2022-11-08T00:04:23.782Z,0.00
2022-11-08T00:05:23.792Z,0.00
2022-11-08T00:06:23.844Z,0.00
2022-11-08T00:07:23.779Z,0.00
2022-11-08T00:08:23.755Z,0.00
2022-11-08T00:09:23.732Z,0.00
2022-11-08T00:10:23.788Z,0.00
2022-11-08T00:11:23.734Z,0.00
2022-11-08T00:12:23.721Z,0.00
2022-11-08T00:13:23.695Z,0.00
2022-11-08T00:14:23.682Z,0.00
2022-11-08T00:15:23.666Z,0.00
2022-11-08T00:16:23.714Z,0.00
2022-11-08T00:17:23.657Z,0.00
2022-11-08T00:18:23.705Z,0.00
2022-11-08T00:19:23.705Z,0.00
2022-11-08T00:20:23.806Z,0.00
2022-11-08T00:21:23.730Z,0.00
2022-11-08T00:22:23.605Z,0.00
2022-11-08T00:23:23.611Z,0.00
2022-11-08T00:24:23.568Z,0.00
2022-11-08T00:25:23.617Z,0.00
2022-11-08T00:26:23.573Z,0.00
2022-11-08T00:27:23.553Z,0.00
2022-11-08T00:28:23.549Z,0.00
2022-11-08T00:29:23.593Z,0.00
2022-11-08T00:30:23.508Z,0.00
2022-11-08T00:31:23.561Z,0.00
2022-11-08T00:32:23.491Z,0.00
2022-11-08T00:33:23.518Z,0.00
2022-11-08T00:34:23.473Z,0.00
2022-11-08T00:35:23.546Z,0.00
2022-11-08T00:36:23.544Z,0.00
2022-11-08T00:37:23.487Z,0.00
2022-11-08T00:38:23.439Z,0.00
2022-11-08T00:39:23.430Z,0.00
2022-11-08T00:40:23.432Z,0.00
2022-11-08T00:41:23.480Z,0.00
2022-11-08T00:42:23.405Z,0.00
2022-11-08T00:43:23.394Z,0.00
2022-11-08T00:44:23.385Z,0.00
2022-11-08T00:45:23.357Z,0.00
2022-11-08T00:46:23.358Z,0.00
2022-11-08T00:47:23.356Z,0.00
2022-11-08T00:48:23.317Z,0.00
2022-11-08T00:49:23.303Z,0.00
2022-11-08T00:50:23.351Z,0.00
2022-11-08T00:51:23.374Z,0.00
2022-11-08T00:52:23.269Z,0.00
2022-11-08T00:53:23.322Z,0.00
2022-11-08T00:54:23.261Z,0.00
2022-11-08T00:55:23.281Z,0.00
2022-11-08T00:56:23.269Z,0.00
2022-11-08T00:57:35.947Z,0.00
2022-11-08T00:58:27.487Z,0.00
2022-11-08T00:59:23.318Z,0.00
2022-11-08T01:00:23.212Z,0.00
2022-11-08T01:01:23.306Z,0.00
2022-11-08T01:02:23.227Z,0.00
2022-11-08T01:03:23.270Z,0.00
2022-11-08T01:04:23.146Z,0.00
2022-11-08T01:05:23.139Z,0.00
2022-11-08T01:06:23.157Z,0.00
2022-11-08T01:07:23.131Z,0.00
2022-11-08T01:08:23.135Z,0.00
2022-11-08T01:09:23.109Z,0.00
2022-11-08T01:10:23.096Z,0.00
2022-11-08T01:11:23.136Z,0.00
2022-11-08T01:12:23.103Z,0.00
2022-11-08T01:13:23.072Z,0.00
2022-11-08T01:14:23.114Z,0.00
2022-11-08T01:15:23.088Z,0.00
2022-11-08T01:16:23.101Z,0.00
2022-11-08T01:17:23.009Z,0.00
2022-11-08T01:18:23.010Z,0.00
2022-11-08T01:19:23.507Z,0.00
2022-11-08T01:20:23.010Z,0.00
2022-11-08T01:21:23.051Z,0.00
2022-11-08T01:22:23.039Z,0.00
2022-11-08T01:23:23.059Z,0.00
2022-11-08T01:24:22.938Z,0.00
2022-11-08T01:25:22.929Z,0.00
2022-11-08T01:26:22.987Z,0.00
2022-11-08T01:27:22.913Z,0.00
2022-11-08T01:28:22.921Z,0.00
2022-11-08T01:29:22.907Z,0.00
2022-11-08T01:30:22.889Z,0.00
2022-11-08T01:31:22.883Z,0.00
2022-11-08T01:32:22.911Z,0.00
2022-11-08T01:33:22.849Z,0.00
2022-11-08T01:34:22.936Z,0.00
2022-11-08T01:35:22.870Z,0.00
2022-11-08T01:36:22.879Z,0.00
2022-11-08T01:37:22.875Z,0.00
2022-11-08T01:38:22.835Z,0.00
2022-11-08T01:39:22.851Z,0.00
2022-11-08T01:40:22.799Z,0.00
2022-11-08T01:41:22.793Z,0.00
2022-11-08T01:42:22.769Z,0.00
2022-11-08T01:43:22.815Z,0.00
2022-11-08T01:44:22.717Z,0.00
2022-11-08T01:45:22.705Z,0.00
2022-11-08T01:46:22.745Z,0.00
2022-11-08T01:47:22.682Z,0.00
2022-11-08T01:48:22.725Z,0.00
2022-11-08T01:49:22.687Z,0.00
2022-11-08T01:50:22.704Z,0.00
2022-11-08T01:51:22.678Z,0.00
2022-11-08T01:52:22.629Z,0.00
2022-11-08T01:53:22.689Z,0.00
2022-11-08T01:54:22.647Z,0.00
2022-11-08T01:55:22.672Z,0.00
2022-11-08T01:56:22.609Z,0.00
2022-11-08T01:57:22.611Z,0.00
2022-11-08T01:58:22.662Z,0.00
2022-11-08T01:59:22.608Z,0.00
2022-11-08T02:00:22.585Z,0.00
2022-11-08T02:01:22.659Z,0.00
2022-11-08T02:02:22.591Z,0.00
2022-11-08T02:03:22.605Z,0.00
2022-11-08T02:04:22.591Z,0.00
2022-11-08T02:05:22.523Z,0.00
2022-11-08T02:06:22.492Z,0.00
2022-11-08T02:07:22.491Z,0.00
2022-11-08T02:08:22.506Z,0.00
2022-11-08T02:09:22.470Z,0.00
2022-11-08T02:10:22.812Z,0.00
2022-11-08T02:11:22.966Z,0.00
2022-11-08T02:12:22.708Z,0.00
2022-11-08T02:13:22.406Z,0.00
2022-11-08T02:14:22.403Z,0.00
2022-11-08T02:15:22.406Z,0.00
2022-11-08T02:16:22.412Z,0.00
2022-11-08T02:17:22.406Z,0.00
2022-11-08T02:18:22.370Z,0.00
2022-11-08T02:19:22.358Z,0.00
2022-11-08T02:20:22.336Z,0.00
2022-11-08T02:21:22.404Z,0.00
2022-11-08T02:22:22.822Z,0.00
2022-11-08T02:23:22.326Z,0.00
2022-11-08T02:24:22.286Z,0.00
2022-11-08T02:25:22.282Z,0.00
2022-11-08T02:26:22.270Z,0.00
2022-11-08T02:27:22.318Z,0.00
2022-11-08T02:28:22.252Z,0.00
2022-11-08T02:29:22.432Z,0.00
2022-11-08T02:30:22.245Z,0.00
2022-11-08T02:31:22.251Z,0.00
2022-11-08T02:32:22.217Z,0.00
2022-11-08T02:33:22.247Z,0.00
2022-11-08T02:34:22.238Z,0.00
2022-11-08T02:35:22.220Z,0.00
2022-11-08T02:36:22.234Z,0.00
2022-11-08T02:37:22.167Z,0.00
2022-11-08T02:38:22.194Z,0.00
2022-11-08T02:39:22.175Z,0.00
2022-11-08T02:40:22.128Z,0.00
2022-11-08T02:41:22.170Z,0.00
2022-11-08T02:42:22.148Z,0.00
2022-11-08T02:43:22.095Z,0.00
2022-11-08T02:44:22.084Z,0.00
2022-11-08T02:45:22.278Z,0.00
2022-11-08T02:46:22.109Z,0.00
2022-11-08T02:47:22.090Z,0.00
2022-11-08T02:48:22.085Z,0.00
2022-11-08T02:49:22.073Z,0.00
2022-11-08T02:50:22.045Z,0.00
2022-11-08T02:51:22.042Z,0.00
2022-11-08T02:52:22.053Z,0.00
2022-11-08T02:53:22.017Z,0.00
2022-11-08T02:54:22.075Z,0.00
2022-11-08T02:55:22.024Z,0.00
2022-11-08T02:56:22.015Z,0.00
2022-11-08T02:57:22.008Z,0.00
2022-11-08T02:58:21.994Z,0.00
2022-11-08T02:59:21.960Z,0.00
2022-11-08T03:00:21.942Z,0.00
2022-11-08T03:01:21.988Z,0.00
2022-11-08T03:02:22.119Z,0.00
2022-11-08T03:03:21.902Z,0.00
2022-11-08T03:04:21.932Z,0.00
2022-11-08T03:05:21.931Z,0.00
2022-11-08T03:06:21.849Z,0.00
2022-11-08T03:07:24.864Z,0.00
2022-11-08T03:08:22.098Z,0.00
2022-11-08T03:09:21.853Z,0.00
2022-11-08T03:10:21.823Z,0.00
2022-11-08T03:11:21.813Z,0.00
2022-11-08T03:12:21.800Z,0.00
2022-11-08T03:13:21.813Z,0.00
2022-11-08T03:14:21.813Z,0.00
2022-11-08T03:15:21.838Z,0.00
2022-11-08T03:16:21.882Z,0.00
2022-11-08T03:17:21.735Z,0.00
2022-11-08T03:18:21.745Z,0.00
2022-11-08T03:19:21.728Z,0.00
2022-11-08T03:20:21.699Z,0.00
2022-11-08T03:21:21.756Z,0.00
2022-11-08T03:22:21.687Z,0.00
2022-11-08T03:23:21.778Z,0.00
2022-11-08T03:24:21.668Z,0.00
2022-11-08T03:25:21.696Z,0.00
2022-11-08T03:26:21.714Z,0.00
2022-11-08T03:27:21.697Z,0.00
2022-11-08T03:28:23.035Z,0.00
2022-11-08T03:29:21.687Z,0.00
2022-11-08T03:30:21.744Z,0.00
2022-11-08T03:31:21.596Z,0.00
2022-11-08T03:32:21.572Z,0.00
2022-11-08T03:33:21.575Z,0.00
2022-11-08T03:34:21.593Z,0.00
2022-11-08T03:35:21.609Z,0.00
2022-11-08T03:36:21.617Z,0.00
2022-11-08T03:37:21.532Z,0.00
2022-11-08T03:38:21.547Z,0.00
2022-11-08T03:39:21.583Z,0.00
2022-11-08T03:40:21.549Z,0.00
2022-11-08T03:41:21.494Z,0.00
2022-11-08T03:42:21.497Z,0.00
2022-11-08T03:43:21.495Z,0.00
2022-11-08T03:44:21.453Z,0.00
2022-11-08T03:45:21.445Z,0.00
2022-11-08T03:46:21.456Z,0.00
2022-11-08T03:47:21.441Z,0.00
2022-11-08T03:48:21.678Z,0.00
2022-11-08T03:49:21.415Z,0.00
2022-11-08T03:50:21.409Z,0.00
2022-11-08T03:51:21.405Z,0.00
2022-11-08T03:52:21.373Z,0.00
2022-11-08T03:53:21.479Z,0.00
2022-11-08T03:54:21.399Z,0.00
2022-11-08T03:55:21.339Z,0.00
2022-11-08T03:56:21.422Z,0.00
2022-11-08T03:57:21.314Z,0.00
2022-11-08T03:58:21.572Z,0.00
2022-11-08T03:59:21.320Z,0.00
2022-11-08T04:00:21.298Z,0.00
2022-11-08T04:01:21.557Z,0.00
2022-11-08T04:02:21.350Z,0.00
2022-11-08T04:03:21.296Z,0.00
2022-11-08T04:04:21.259Z,0.00
2022-11-08T04:05:21.263Z,0.00
2022-11-08T04:06:21.435Z,0.00
2022-11-08T04:07:21.276Z,0.00
2022-11-08T04:08:21.397Z,0.00
2022-11-08T04:09:21.790Z,0.00
2022-11-08T04:10:21.205Z,0.00
2022-11-08T04:11:21.250Z,0.00
2022-11-08T04:12:21.182Z,0.00
2022-11-08T04:13:21.179Z,0.00
2022-11-08T04:14:21.158Z,0.00
2022-11-08T04:15:21.146Z,0.00
2022-11-08T04:16:21.212Z,0.00
2022-11-08T04:17:21.215Z,0.00
2022-11-08T04:18:21.487Z,0.00
2022-11-08T04:19:21.193Z,0.00
2022-11-08T04:20:21.146Z,0.00
2022-11-08T04:21:21.141Z,0.00
2022-11-08T04:22:21.067Z,0.00
2022-11-08T04:23:21.070Z,0.00
2022-11-08T04:24:21.049Z,0.00
2022-11-08T04:25:21.025Z,0.00
2022-11-08T04:26:21.039Z,0.00
2022-11-08T04:27:21.023Z,0.00
2022-11-08T04:28:21.154Z,0.00
2022-11-08T04:29:20.971Z,0.00
2022-11-08T04:30:20.972Z,0.00
2022-11-08T04:31:21.028Z,0.00
2022-11-08T04:32:20.994Z,0.00
2022-11-08T04:33:20.937Z,0.00
2022-11-08T04:34:21.066Z,0.00
2022-11-08T04:35:20.960Z,0.00
2022-11-08T04:36:20.951Z,0.00
2022-11-08T04:37:20.890Z,0.00
2022-11-08T04:38:21.216Z,0.00
2022-11-08T04:39:20.959Z,0.00
2022-11-08T04:40:20.884Z,0.00
2022-11-08T04:41:20.904Z,0.00
2022-11-08T04:42:20.861Z,0.00
2022-11-08T04:43:20.825Z,0.00
2022-11-08T04:44:20.813Z,0.00
2022-11-08T04:45:20.823Z,0.00
2022-11-08T04:46:20.862Z,0.00
2022-11-08T04:47:20.819Z,0.00
2022-11-08T04:48:21.040Z,0.00
2022-11-08T04:49:20.827Z,0.00
2022-11-08T04:50:20.762Z,0.00
2022-11-08T04:51:20.764Z,0.00
2022-11-08T04:52:20.773Z,0.00
2022-11-08T04:53:20.733Z,0.00
2022-11-08T04:54:20.707Z,0.00
2022-11-08T04:55:20.737Z,0.00
2022-11-08T04:56:20.732Z,0.00
2022-11-08T04:57:20.801Z,0.00
2022-11-08T04:58:20.895Z,0.00
2022-11-08T04:59:20.661Z,0.00
2022-11-08T05:00:20.648Z,0.00
2022-11-08T05:01:20.832Z,0.00
2022-11-08T05:02:20.782Z,0.00
2022-11-08T05:03:20.614Z,0.00
2022-11-08T05:04:20.627Z,0.00
2022-11-08T05:05:20.674Z,0.00
2022-11-08T05:06:20.633Z,0.00
2022-11-08T05:07:20.604Z,0.00
2022-11-08T05:08:20.911Z,0.00
2022-11-08T05:09:20.637Z,0.00
2022-11-08T05:10:20.553Z,0.00
2022-11-08T05:11:20.581Z,0.00
2022-11-08T05:12:20.608Z,0.00
2022-11-08T05:13:20.538Z,0.00
2022-11-08T05:14:20.505Z,0.00
2022-11-08T05:15:20.542Z,0.00
2022-11-08T05:16:20.499Z,0.00
2022-11-08T05:17:20.501Z,0.00
2022-11-08T05:18:20.720Z,0.00
2022-11-08T05:19:20.458Z,0.00
2022-11-08T05:20:20.462Z,0.00
2022-11-08T05:21:20.452Z,0.00
2022-11-08T05:22:20.421Z,0.00
2022-11-08T05:23:20.446Z,0.00
2022-11-08T05:24:20.415Z,0.00
2022-11-08T05:25:20.445Z,0.00
2022-11-08T05:26:20.470Z,0.00
2022-11-08T05:27:20.401Z,0.00
2022-11-08T05:28:20.646Z,0.00
2022-11-08T05:29:20.398Z,0.00
2022-11-08T05:30:20.344Z,0.00
2022-11-08T05:31:20.398Z,0.00
2022-11-08T05:32:20.349Z,0.00
2022-11-08T05:33:20.374Z,0.00
2022-11-08T05:34:20.298Z,0.00
2022-11-08T05:35:20.300Z,0.00
2022-11-08T05:36:20.330Z,0.00
2022-11-08T05:37:20.420Z,0.00
2022-11-08T05:38:20.711Z,0.00
2022-11-08T05:39:20.241Z,0.00
2022-11-08T05:40:20.225Z,0.00
2022-11-08T05:41:20.308Z,0.00
2022-11-08T05:42:20.254Z,0.00
2022-11-08T05:43:20.587Z,0.00
2022-11-08T05:44:20.191Z,0.00
2022-11-08T05:45:20.205Z,0.00
2022-11-08T05:46:20.231Z,0.00
2022-11-08T05:47:20.201Z,0.00
2022-11-08T05:48:20.552Z,0.00
2022-11-08T05:49:20.153Z,0.00
2022-11-08T05:50:20.140Z,0.00
2022-11-08T05:51:20.183Z,0.00
2022-11-08T05:52:20.101Z,0.00
2022-11-08T05:53:20.368Z,0.00
2022-11-08T05:54:20.089Z,0.00
2022-11-08T05:55:20.116Z,0.00
2022-11-08T05:56:20.113Z,0.00
2022-11-08T05:57:22.174Z,0.00
2022-11-08T05:58:20.096Z,0.00
2022-11-08T05:59:20.055Z,0.00
2022-11-08T06:00:20.022Z,0.00
2022-11-08T06:01:20.112Z,0.00
2022-11-08T06:02:20.114Z,0.00
2022-11-08T06:03:23.674Z,0.00
2022-11-08T06:04:19.986Z,0.00
2022-11-08T06:05:20.023Z,0.00
2022-11-08T06:06:20.037Z,0.00
2022-11-08T06:07:19.995Z,0.00
2022-11-08T06:08:19.968Z,0.00
2022-11-08T06:09:19.962Z,0.00
2022-11-08T06:10:19.933Z,0.00
2022-11-08T06:11:19.936Z,0.00
2022-11-08T06:12:20.003Z,0.00
2022-11-08T06:13:19.935Z,0.00
2022-11-08T06:14:20.020Z,5.62
2022-11-08T06:15:19.941Z,5.62
2022-11-08T06:16:19.929Z,5.62
2022-11-08T06:17:19.851Z,5.62
2022-11-08T06:18:19.889Z,11.25
2022-11-08T06:19:19.818Z,11.25
2022-11-08T06:20:19.927Z,11.25
2022-11-08T06:21:19.855Z,11.25
2022-11-08T06:22:19.803Z,11.25
2022-11-08T06:23:20.186Z,11.25
2022-11-08T06:24:19.788Z,11.25
2022-11-08T06:25:19.788Z,11.25
2022-11-08T06:26:19.787Z,16.88
2022-11-08T06:27:19.752Z,16.88
2022-11-08T06:28:19.803Z,16.88
2022-11-08T06:29:19.736Z,16.88
2022-11-08T06:30:19.709Z,16.88
2022-11-08T06:31:19.781Z,16.88
2022-11-08T06:32:19.728Z,22.50
2022-11-08T06:33:20.188Z,22.50
2022-11-08T06:34:19.676Z,22.50
2022-11-08T06:35:19.696Z,28.12
2022-11-08T06:36:19.698Z,28.12
2022-11-08T06:37:19.649Z,33.75
2022-11-08T06:38:19.619Z,33.75
2022-11-08T06:39:19.644Z,39.38
2022-11-08T06:40:19.654Z,39.38
2022-11-08T06:41:19.686Z,45.00
2022-11-08T06:42:19.574Z,45.00
2022-11-08T06:43:20.405Z,50.62
2022-11-08T06:44:19.629Z,50.62
2022-11-08T06:45:19.581Z,50.62
2022-11-08T06:46:19.603Z,50.62
2022-11-08T06:47:19.558Z,56.25
2022-11-08T06:48:19.561Z,56.25
2022-11-08T06:49:19.588Z,56.25
2022-11-08T06:50:19.495Z,61.88
2022-11-08T06:51:19.530Z,67.50
2022-11-08T06:52:19.467Z,73.12
2022-11-08T06:53:19.920Z,84.38
2022-11-08T06:54:22.119Z,90.00
2022-11-08T06:55:20.436Z,101.25
2022-11-08T06:56:19.473Z,106.88
2022-11-08T06:57:19.460Z,112.50
2022-11-08T06:58:19.421Z,112.50
2022-11-08T06:59:19.411Z,112.50
2022-11-08T07:00:19.492Z,106.88
2022-11-08T07:01:19.430Z,106.88
2022-11-08T07:02:19.543Z,106.88
2022-11-08T07:03:19.707Z,106.88
2022-11-08T07:04:19.577Z,101.25
2022-11-08T07:05:19.396Z,101.25
2022-11-08T07:06:19.393Z,106.88
2022-11-08T07:07:19.353Z,112.50
2022-11-08T07:08:23.698Z,112.50
2022-11-08T07:09:19.557Z,129.38
2022-11-08T07:10:19.289Z,135.00
2022-11-08T07:11:19.346Z,146.25
2022-11-08T07:12:19.254Z,151.88
2022-11-08T07:13:19.860Z,157.50
2022-11-08T07:14:19.252Z,168.75
2022-11-08T07:15:19.299Z,174.38
2022-11-08T07:16:19.279Z,191.25
2022-11-08T07:17:19.234Z,258.75
2022-11-08T07:18:19.319Z,309.38
2022-11-08T07:19:19.220Z,230.62
2022-11-08T07:20:19.222Z,208.12
2022-11-08T07:21:19.246Z,202.50
2022-11-08T07:22:19.184Z,191.25
2022-11-08T07:23:19.690Z,191.25
2022-11-08T07:24:19.173Z,202.50
2022-11-08T07:25:19.178Z,208.12
2022-11-08T07:26:19.154Z,213.75
2022-11-08T07:27:19.137Z,225.00
2022-11-08T07:28:19.085Z,225.00
2022-11-08T07:29:19.068Z,196.88
2022-11-08T07:30:19.064Z,191.25
2022-11-08T07:31:19.207Z,213.75
2022-11-08T07:32:19.119Z,208.12
2022-11-08T07:33:19.387Z,253.12
2022-11-08T07:34:19.099Z,303.75
2022-11-08T07:35:19.084Z,275.62
2022-11-08T07:36:19.046Z,191.25
2022-11-08T07:37:18.992Z,185.62
2022-11-08T07:38:19.004Z,168.75
2022-11-08T07:39:19.085Z,163.12
2022-11-08T07:40:18.995Z,163.12
2022-11-08T07:41:19.008Z,168.75
2022-11-08T07:42:18.963Z,168.75
2022-11-08T07:43:19.024Z,174.38
2022-11-08T07:44:18.942Z,180.00
2022-11-08T07:45:18.922Z,174.38
2022-11-08T07:46:18.929Z,180.00
2022-11-08T07:47:18.961Z,168.75
2022-11-08T07:48:18.936Z,168.75
2022-11-08T07:49:18.895Z,163.12
2022-11-08T07:50:18.847Z,163.12
2022-11-08T07:51:18.872Z,163.12
2022-11-08T07:52:18.915Z,168.75
2022-11-08T07:53:19.302Z,174.38
2022-11-08T07:54:18.814Z,180.00
2022-11-08T07:55:18.824Z,185.62
2022-11-08T07:56:18.825Z,185.62
2022-11-08T07:57:18.841Z,191.25
2022-11-08T07:58:18.762Z,191.25
2022-11-08T07:59:18.764Z,191.25
2022-11-08T08:00:18.800Z,191.25
2022-11-08T08:01:18.760Z,185.62
2022-11-08T08:02:18.911Z,180.00
2022-11-08T08:03:19.324Z,180.00
2022-11-08T08:04:18.751Z,180.00
2022-11-08T08:05:18.706Z,180.00
2022-11-08T08:06:18.779Z,185.62
2022-11-08T08:07:18.839Z,191.25
2022-11-08T08:08:18.893Z,196.88
2022-11-08T08:09:18.684Z,202.50
2022-11-08T08:10:18.657Z,208.12
2022-11-08T08:11:18.748Z,219.38
2022-11-08T08:12:18.630Z,230.62
2022-11-08T08:13:19.012Z,236.25
2022-11-08T08:14:18.739Z,253.12
2022-11-08T08:15:18.655Z,264.38
2022-11-08T08:16:18.609Z,275.62
2022-11-08T08:17:18.634Z,281.25
2022-11-08T08:18:18.635Z,292.50
2022-11-08T08:19:18.622Z,303.75
2022-11-08T08:20:18.551Z,315.00
2022-11-08T08:21:18.542Z,326.25
2022-11-08T08:22:18.511Z,331.88
2022-11-08T08:23:18.929Z,337.50
2022-11-08T08:24:18.547Z,337.50
2022-11-08T08:25:18.525Z,343.12
2022-11-08T08:26:18.494Z,343.12
2022-11-08T08:27:18.559Z,354.38
2022-11-08T08:28:18.523Z,371.25
2022-11-08T08:29:18.437Z,382.50
2022-11-08T08:30:18.430Z,399.38
2022-11-08T08:31:18.437Z,410.62
2022-11-08T08:32:18.481Z,421.88
2022-11-08T08:33:33.734Z,433.12
2022-11-08T08:34:19.376Z,444.38
2022-11-08T08:35:18.433Z,444.38
2022-11-08T08:36:18.415Z,444.38
2022-11-08T08:37:18.369Z,427.50
2022-11-08T08:38:18.418Z,405.00
2022-11-08T08:39:18.433Z,376.88
2022-11-08T08:40:18.345Z,348.75
2022-11-08T08:41:18.349Z,331.88
2022-11-08T08:42:18.337Z,320.62
2022-11-08T08:43:18.669Z,303.75
2022-11-08T08:44:18.314Z,286.88
2022-11-08T08:45:18.314Z,270.00
2022-11-08T08:46:18.304Z,258.75
2022-11-08T08:47:18.307Z,253.12
2022-11-08T08:48:18.223Z,241.88
2022-11-08T08:49:18.271Z,236.25
2022-11-08T08:50:18.276Z,230.62
2022-11-08T08:51:18.230Z,225.00
2022-11-08T08:52:18.250Z,225.00
2022-11-08T08:53:18.605Z,225.00
2022-11-08T08:54:18.192Z,219.38
2022-11-08T08:55:18.211Z,219.38
2022-11-08T08:56:18.159Z,219.38
2022-11-08T08:57:18.245Z,219.38
2022-11-08T08:58:18.160Z,225.00
2022-11-08T09:02:19.193Z,247.50
2022-11-08T09:03:18.401Z,258.75
2022-11-08T09:04:18.113Z,286.88
2022-11-08T09:05:18.076Z,286.88
2022-11-08T09:06:18.073Z,275.62
2022-11-08T09:07:18.148Z,258.75
2022-11-08T09:08:18.050Z,241.88
2022-11-08T09:09:18.024Z,241.88
2022-11-08T09:10:17.992Z,298.12
2022-11-08T09:11:18.010Z,275.62
2022-11-08T09:12:17.996Z,292.50
2022-11-08T09:13:18.336Z,371.25
2022-11-08T09:14:18.100Z,292.50
2022-11-08T09:15:18.098Z,275.62
2022-11-08T09:16:17.932Z,264.38
2022-11-08T09:17:17.953Z,258.75
2022-11-08T09:18:18.148Z,258.75
2022-11-08T09:19:17.929Z,303.75
2022-11-08T09:20:17.962Z,258.75
2022-11-08T09:21:17.925Z,258.75
2022-11-08T09:22:17.880Z,264.38
2022-11-08T09:23:18.443Z,292.50
2022-11-08T09:24:17.906Z,376.88
2022-11-08T09:25:17.838Z,247.50
2022-11-08T09:26:17.962Z,225.00
2022-11-08T09:27:17.844Z,225.00
2022-11-08T09:28:17.797Z,225.00
2022-11-08T09:29:17.801Z,225.00
2022-11-08T09:30:17.823Z,230.62
2022-11-08T09:31:17.846Z,236.25
2022-11-08T09:32:24.763Z,247.50
2022-11-08T09:33:19.094Z,253.12
2022-11-08T09:34:20.723Z,303.75
2022-11-08T09:35:17.750Z,483.75
2022-11-08T09:36:17.720Z,450.00
2022-11-08T09:37:17.750Z,596.25
2022-11-08T09:38:18.147Z,365.62
2022-11-08T09:39:17.720Z,405.00
2022-11-08T09:40:17.714Z,450.00
2022-11-08T09:41:17.728Z,618.75
2022-11-08T09:42:17.662Z,618.75
2022-11-08T09:43:17.942Z,748.12
2022-11-08T09:44:17.638Z,399.38
2022-11-08T09:45:17.764Z,635.62
2022-11-08T09:46:17.615Z,945.00
2022-11-08T09:47:17.637Z,843.75
2022-11-08T09:48:17.610Z,686.25
2022-11-08T09:49:17.573Z,933.75
2022-11-08T09:50:17.562Z,905.62
2022-11-08T09:51:17.624Z,911.25
2022-11-08T09:52:17.552Z,556.88
2022-11-08T09:53:17.986Z,759.38
2022-11-08T09:54:19.516Z,495.00
2022-11-08T09:55:17.547Z,613.12
2022-11-08T09:56:17.548Z,860.62
2022-11-08T09:57:17.509Z,838.12
2022-11-08T09:58:17.519Z,984.38
2022-11-08T09:59:17.512Z,945.00
2022-11-08T10:00:17.739Z,905.62
2022-11-08T10:01:17.578Z,641.25
2022-11-08T10:02:17.562Z,601.88
2022-11-08T10:03:17.695Z,585.00
2022-11-08T10:04:17.422Z,585.00
2022-11-08T10:05:17.429Z,590.62
2022-11-08T10:06:17.436Z,596.25
2022-11-08T10:07:17.600Z,573.75
2022-11-08T10:08:17.386Z,556.88
2022-11-08T10:09:17.422Z,551.25
2022-11-08T10:10:17.359Z,540.00
2022-11-08T10:11:17.450Z,534.38
2022-11-08T10:12:17.346Z,523.12
2022-11-08T10:13:17.680Z,511.88
2022-11-08T10:14:17.314Z,495.00
2022-11-08T10:15:17.328Z,489.38
2022-11-08T10:16:17.368Z,495.00
2022-11-08T10:17:17.296Z,500.62
2022-11-08T10:18:17.256Z,506.25
2022-11-08T10:19:17.258Z,511.88
2022-11-08T10:20:17.230Z,534.38
2022-11-08T10:21:17.240Z,562.50
2022-11-08T10:22:17.213Z,590.62
2022-11-08T10:23:17.694Z,646.88
2022-11-08T10:24:17.189Z,855.00
2022-11-08T10:25:17.257Z,1091.25
2022-11-08T10:26:18.051Z,950.62
2022-11-08T10:27:17.168Z,922.50
2022-11-08T10:28:17.172Z,905.62
2022-11-08T10:29:17.164Z,1001.25
2022-11-08T10:30:17.149Z,1226.25
2022-11-08T10:31:17.195Z,855.00
2022-11-08T10:32:17.121Z,793.12
2022-11-08T10:33:17.586Z,770.62
2022-11-08T10:34:17.088Z,849.38
2022-11-08T10:35:17.079Z,1108.12
2022-11-08T10:36:17.095Z,973.12
2022-11-08T10:37:17.055Z,939.38
2022-11-08T10:38:17.078Z,894.38
2022-11-08T10:39:17.118Z,933.75
2022-11-08T10:40:17.079Z,945.00
2022-11-08T10:41:17.099Z,900.00
2022-11-08T10:42:16.996Z,928.12
2022-11-08T10:43:16.990Z,1006.88
2022-11-08T10:44:17.023Z,1186.88
2022-11-08T10:45:17.100Z,1265.62
2022-11-08T10:46:17.003Z,1220.62
2022-11-08T10:47:16.974Z,1203.75
2022-11-08T10:48:17.420Z,781.88
2022-11-08T10:49:16.972Z,765.00
2022-11-08T10:50:16.957Z,753.75
2022-11-08T10:51:16.921Z,675.00
2022-11-08T10:52:16.920Z,658.12
2022-11-08T10:53:17.376Z,641.25
2022-11-08T10:54:16.876Z,635.62
2022-11-08T10:55:16.900Z,624.38
2022-11-08T10:56:16.873Z,613.12
2022-11-08T10:57:16.976Z,601.88
2022-11-08T10:58:17.138Z,585.00
2022-11-08T10:59:16.830Z,573.75
2022-11-08T11:00:16.857Z,556.88
2022-11-08T11:01:16.926Z,534.38
2022-11-08T11:02:16.831Z,517.50
2022-11-08T11:03:16.848Z,506.25
2022-11-08T11:04:16.822Z,500.62
2022-11-08T11:05:16.800Z,500.62
2022-11-08T11:06:16.823Z,495.00
2022-11-08T11:07:16.789Z,495.00
2022-11-08T11:08:17.118Z,489.38
2022-11-08T11:09:16.787Z,489.38
2022-11-08T11:10:16.773Z,483.75
2022-11-08T11:11:16.760Z,478.12
2022-11-08T11:12:16.727Z,472.50
2022-11-08T11:13:16.783Z,472.50
2022-11-08T11:14:21.842Z,472.50
2022-11-08T11:15:17.638Z,478.12
2022-11-08T11:16:16.773Z,478.12
2022-11-08T11:17:16.682Z,483.75
2022-11-08T11:18:16.993Z,483.75
2022-11-08T11:19:16.655Z,489.38
2022-11-08T11:20:16.643Z,495.00
2022-11-08T11:21:16.647Z,495.00
2022-11-08T11:22:16.625Z,506.25
2022-11-08T11:23:16.565Z,523.12
2022-11-08T11:24:19.239Z,540.00
2022-11-08T11:25:16.550Z,545.62
2022-11-08T11:26:16.653Z,562.50
2022-11-08T11:27:16.512Z,562.50
2022-11-08T11:28:16.937Z,573.75
2022-11-08T11:29:16.518Z,573.75
2022-11-08T11:30:16.558Z,579.38
2022-11-08T11:31:16.573Z,590.62
2022-11-08T11:32:16.497Z,613.12
2022-11-08T11:33:16.517Z,630.00
2022-11-08T11:34:16.441Z,652.50
2022-11-08T11:35:16.500Z,675.00
2022-11-08T11:36:16.413Z,703.12
2022-11-08T11:37:16.436Z,731.25
2022-11-08T11:38:16.757Z,748.12
2022-11-08T11:39:16.537Z,776.25
2022-11-08T11:40:16.480Z,793.12
2022-11-08T11:41:16.436Z,815.62
2022-11-08T11:42:43.715Z,826.88
2022-11-08T11:43:17.338Z,810.00
2022-11-08T11:44:16.330Z,838.12
2022-11-08T11:45:16.388Z,843.75
2022-11-08T11:46:16.320Z,928.12
2022-11-08T11:47:16.336Z,1046.25
2022-11-08T11:48:16.688Z,1029.38
2022-11-08T11:49:16.332Z,978.75
2022-11-08T11:50:16.302Z,961.88
2022-11-08T11:51:16.319Z,1181.25
2022-11-08T11:52:16.248Z,1186.88
2022-11-08T11:53:16.234Z,1080.00
2022-11-08T11:54:16.224Z,1051.88
2022-11-08T11:55:16.254Z,1001.25
2022-11-08T11:56:16.193Z,933.75
2022-11-08T11:57:16.272Z,900.00
2022-11-08T11:58:16.459Z,883.12
2022-11-08T11:59:16.246Z,843.75
2022-11-08T12:00:16.222Z,855.00
2022-11-08T12:01:16.163Z,894.38
2022-11-08T12:02:16.229Z,821.25
2022-11-08T12:03:16.479Z,714.38
2022-11-08T12:04:16.172Z,736.88
2022-11-08T12:05:16.162Z,725.62
2022-11-08T12:06:16.191Z,624.38
2022-11-08T12:07:16.343Z,613.12
2022-11-08T12:08:16.460Z,590.62
2022-11-08T12:09:16.057Z,601.88
2022-11-08T12:10:16.098Z,635.62
2022-11-08T12:11:16.098Z,658.12
2022-11-08T12:12:16.063Z,624.38
2022-11-08T12:13:16.053Z,607.50
2022-11-08T12:14:16.046Z,663.75
2022-11-08T12:15:16.024Z,703.12
2022-11-08T12:16:16.022Z,691.88
2022-11-08T12:17:16.006Z,742.50
2022-11-08T12:18:36.566Z,776.25
2022-11-08T12:19:16.982Z,810.00
2022-11-08T12:20:16.084Z,804.38
2022-11-08T12:21:15.953Z,894.38
2022-11-08T12:22:15.972Z,860.62
2022-11-08T12:23:15.958Z,832.50
2022-11-08T12:24:16.001Z,793.12
2022-11-08T12:25:15.971Z,691.88
2022-11-08T12:26:15.898Z,680.62
2022-11-08T12:27:15.891Z,669.38
2022-11-08T12:28:16.167Z,658.12
2022-11-08T12:29:15.849Z,731.25
2022-11-08T12:30:15.881Z,928.12
2022-11-08T12:31:15.812Z,1029.38
2022-11-08T12:32:15.860Z,894.38
2022-11-08T12:33:15.982Z,1068.75
2022-11-08T12:34:15.824Z,1006.88
2022-11-08T12:35:15.842Z,1040.62
2022-11-08T12:36:15.771Z,1012.50
2022-11-08T12:37:15.769Z,939.38
2022-11-08T12:38:16.191Z,1051.88
2022-11-08T12:39:20.570Z,984.38
2022-11-08T12:40:16.824Z,894.38
2022-11-08T12:41:15.726Z,905.62
2022-11-08T12:42:15.812Z,945.00
2022-11-08T12:43:15.711Z,928.12
2022-11-08T12:44:15.714Z,877.50
2022-11-08T12:45:15.697Z,776.25
2022-11-08T12:46:15.654Z,765.00
2022-11-08T12:47:15.651Z,781.88
2022-11-08T12:48:16.030Z,787.50
2022-11-08T12:49:15.677Z,759.38
2022-11-08T12:50:15.735Z,697.50
2022-11-08T12:51:15.621Z,663.75
2022-11-08T12:52:15.592Z,669.38
2022-11-08T12:53:15.717Z,675.00
2022-11-08T12:54:15.573Z,630.00
2022-11-08T12:55:15.642Z,618.75